Time;durP1;ratioP1;P1;durP2;ratioP2;P2;SDS_P1;SDS_P2;PMS_P1;PMS_P2;Temp;Humidity;BMP_temperature;BMP_pressure;BME280_temperature;BME280_humidity;BME280_pressure;Samples;Min_cycle;Max_cycle;Signal;HPM_P1;HPM_P2
2022/09/27 00:01:17;;;;;;;7.43;4.28;;;;;;;9.94;100.00;98950.00;4934873;29;20417;-77
2022/09/27 00:03:45;;;;;;;9.10;4.20;;;;;;;9.91;100.00;98946.97;4935286;29;20513;-78
2022/09/27 00:06:14;;;;;;;8.75;4.35;;;;;;;9.88;100.00;98947.38;4934477;29;20051;-77
2022/09/27 00:08:42;;;;;;;9.65;4.15;;;;;;;9.89;100.00;98952.41;4933808;29;20043;-77
2022/09/27 00:11:16;;;;;;;7.72;4.40;;;;;;;9.88;100.00;98965.66;4935069;29;20047;-77
2022/09/27 00:13:43;;;;;;;7.63;4.70;;;;;;;9.88;100.00;98956.00;4934945;29;20119;-77
2022/09/27 00:16:10;;;;;;;5.55;4.25;;;;;;;9.91;100.00;98954.81;4934519;29;20107;-77
2022/09/27 00:18:37;;;;;;;11.60;5.22;;;;;;;9.88;100.00;98961.22;4934762;29;20441;-76
2022/09/27 00:21:07;;;;;;;14.60;5.13;;;;;;;9.91;100.00;98960.03;4935474;29;20102;-76
2022/09/27 00:23:34;;;;;;;9.18;4.88;;;;;;;9.93;100.00;98973.69;4935036;29;20048;-77
2022/09/27 00:26:01;;;;;;;9.18;5.25;;;;;;;9.93;100.00;98974.50;4935364;29;20056;-78
2022/09/27 00:28:29;;;;;;;8.65;5.45;;;;;;;9.94;100.00;98981.34;4935394;29;20047;-76
2022/09/27 00:30:56;;;;;;;7.88;5.00;;;;;;;9.92;100.00;98979.94;4935539;29;20420;-76
2022/09/27 00:33:23;;;;;;;11.52;5.35;;;;;;;9.90;100.00;98987.97;4935417;29;20416;-76
2022/09/27 00:35:50;;;;;;;9.23;5.35;;;;;;;9.87;100.00;98987.56;4935222;29;20056;-78
2022/09/27 00:38:18;;;;;;;11.07;6.18;;;;;;;9.90;100.00;98989.78;4935078;29;20452;-78
2022/09/27 00:40:45;;;;;;;10.20;6.07;;;;;;;9.90;100.00;98984.56;4935716;29;20055;-78
2022/09/27 00:43:18;;;;;;;12.95;6.20;;;;;;;9.88;100.00;98986.56;4935338;29;20048;-77
2022/09/27 00:45:52;;;;;;;14.63;5.88;;;;;;;9.93;100.00;98984.94;4935366;29;20090;-77
2022/09/27 00:48:23;;;;;;;10.60;6.43;;;;;;;9.90;100.00;98990.59;4934434;29;20524;-78
2022/09/27 00:50:53;;;;;;;9.88;6.55;;;;;;;9.89;100.00;98990.78;4934862;29;20111;-77
2022/09/27 00:53:28;;;;;;;9.13;5.90;;;;;;;9.89;100.00;98988.16;4935206;29;20220;-78
2022/09/27 00:55:59;;;;;;;15.02;5.88;;;;;;;9.88;100.00;99002.22;4934452;29;20099;-78
2022/09/27 00:58:30;;;;;;;8.82;5.25;;;;;;;9.78;100.00;98988.69;4934484;29;20048;-77
2022/09/27 01:01:02;;;;;;;7.90;4.97;;;;;;;9.76;100.00;98994.09;4934942;29;20043;-77
2022/09/27 01:03:36;;;;;;;8.82;4.63;;;;;;;9.76;100.00;98988.06;4935417;29;20239;-77
2022/09/27 01:06:06;;;;;;;7.28;4.00;;;;;;;9.70;100.00;98997.47;4936016;29;20489;-78
2022/09/27 01:08:34;;;;;;;6.40;3.92;;;;;;;9.70;100.00;98997.47;4934463;29;20051;-77
2022/09/27 01:11:13;;;;;;;7.03;4.07;;;;;;;9.71;100.00;98993.88;4934868;29;20079;-78
2022/09/27 01:13:49;;;;;;;6.07;4.20;;;;;;;9.66;100.00;98996.22;4934815;29;20110;-77
2022/09/27 01:16:25;;;;;;;6.97;4.25;;;;;;;9.63;100.00;98994.81;4936461;29;20126;-79
2022/09/27 01:19:04;;;;;;;8.10;4.75;;;;;;;9.64;100.00;99006.88;4934830;29;20060;-78
2022/09/27 01:21:41;;;;;;;7.75;4.30;;;;;;;9.61;100.00;99011.66;4915866;29;20060;-77
2022/09/27 01:24:39;;;;;;;6.32;4.43;;;;;;;9.63;100.00;99010.47;4927472;29;20051;-77
2022/09/27 01:27:39;;;;;;;8.55;4.50;;;;;;;9.67;100.00;99010.91;4934332;29;20099;-76
2022/09/27 01:30:22;;;;;;;8.82;4.95;;;;;;;9.61;100.00;99016.88;4933924;29;20559;-77
2022/09/27 01:32:54;;;;;;;9.27;5.25;;;;;;;9.62;100.00;99011.47;4915452;29;20044;-77
2022/09/27 01:35:31;;;;;;;10.30;5.97;;;;;;;9.61;100.00;99009.84;4915570;29;20520;-76
2022/09/27 01:38:13;;;;;;;8.93;5.28;;;;;;;9.56;100.00;99004.38;4916265;29;20056;-79
2022/09/27 01:40:49;;;;;;;12.73;6.07;;;;;;;9.58;100.00;99007.63;4914732;29;20477;-77
2022/09/27 01:43:21;;;;;;;11.75;6.00;;;;;;;9.59;100.00;99011.84;4914650;29;20076;-76
2022/09/27 01:45:54;;;;;;;16.23;8.40;;;;;;;9.60;100.00;99005.63;4919526;29;20055;-77
2022/09/27 01:48:23;;;;;;;11.00;7.43;;;;;;;9.65;100.00;99011.09;4932936;29;20056;-78
2022/09/27 01:50:55;;;;;;;9.95;7.35;;;;;;;9.62;100.00;98998.41;4933513;29;20044;-77
2022/09/27 01:53:27;;;;;;;12.20;6.47;;;;;;;9.63;100.00;99005.25;4933286;29;20566;-76
2022/09/27 01:55:55;;;;;;;9.30;6.32;;;;;;;9.69;100.00;99006.31;4914407;29;20476;-76
2022/09/27 01:58:28;;;;;;;9.63;6.70;;;;;;;9.62;100.00;99015.88;4913780;29;20080;-76
2022/09/27 02:00:57;;;;;;;9.52;6.57;;;;;;;9.61;100.00;99012.47;4920863;29;20048;-76
2022/09/27 02:03:28;;;;;;;8.73;6.40;;;;;;;9.60;100.00;99010.84;4933046;29;20051;-78
2022/09/27 02:05:59;;;;;;;9.98;6.40;;;;;;;9.54;100.00;99016.03;4933408;29;20099;-77
2022/09/27 02:08:31;;;;;;;9.85;6.35;;;;;;;9.52;100.00;99016.22;4933160;29;20481;-77
2022/09/27 02:11:02;;;;;;;11.15;6.93;;;;;;;9.49;100.00;99019.19;4933328;29;20508;-77
2022/09/27 02:13:38;;;;;;;10.48;6.85;;;;;;;9.39;100.00;99013.50;4933364;29;20106;-77
2022/09/27 02:16:17;;;;;;;14.30;7.28;;;;;;;9.45;100.00;99015.34;4932999;29;20074;-78
2022/09/27 02:18:56;;;;;;;9.85;6.25;;;;;;;9.50;100.00;99026.03;4933520;29;20423;-77
2022/09/27 02:21:30;;;;;;;13.48;6.50;;;;;;;9.52;100.00;99018.00;4933774;29;20056;-77
2022/09/27 02:24:02;;;;;;;9.80;6.20;;;;;;;9.52;100.00;99020.63;4933839;29;20436;-77
2022/09/27 02:26:35;;;;;;;14.85;6.95;;;;;;;9.50;100.00;99020.00;4929367;29;20110;-77
2022/09/27 02:29:09;;;;;;;8.57;6.13;;;;;;;9.49;100.00;99028.81;4932949;29;20059;-77
2022/09/27 02:31:37;;;;;;;7.07;5.18;;;;;;;9.50;100.00;99025.22;4936052;29;20066;-77
2022/09/27 02:34:07;;;;;;;12.50;6.28;;;;;;;9.44;100.00;99026.81;4937171;29;20091;-77
2022/09/27 02:36:34;;;;;;;8.80;5.22;;;;;;;9.41;100.00;99024.56;4936867;29;20138;-77
2022/09/27 02:39:01;;;;;;;6.65;5.07;;;;;;;9.39;100.00;99028.38;4936168;29;20056;-78
2022/09/27 02:41:27;;;;;;;10.60;5.85;;;;;;;9.36;100.00;99034.75;4936289;29;20049;-77
2022/09/27 02:43:59;;;;;;;10.18;5.63;;;;;;;9.36;100.00;99028.72;4936863;29;20051;-78
2022/09/27 02:46:48;;;;;;;8.45;5.15;;;;;;;9.37;100.00;99035.56;4936418;29;20425;-78
2022/09/27 02:49:30;;;;;;;7.22;5.35;;;;;;;9.36;100.00;99034.75;4935792;29;20476;-77
2022/09/27 02:52:06;;;;;;;7.77;5.43;;;;;;;9.37;100.00;99049.44;4936872;29;20417;-78
2022/09/27 02:54:43;;;;;;;9.07;5.75;;;;;;;9.39;100.00;99044.84;4936364;29;20378;-77
2022/09/27 02:57:22;;;;;;;13.52;6.10;;;;;;;9.34;100.00;99047.19;4930827;29;20051;-78
2022/09/27 02:59:57;;;;;;;8.52;5.90;;;;;;;9.37;100.00;99052.03;4936135;29;20507;-78
2022/09/27 03:02:32;;;;;;;8.70;5.47;;;;;;;9.42;100.00;99049.69;4936722;29;20052;-76
2022/09/27 03:05:02;;;;;;;8.05;5.32;;;;;;;9.38;100.00;99055.47;4938563;29;20162;-78
2022/09/27 03:07:29;;;;;;;14.60;5.20;;;;;;;9.39;100.00;99055.28;4939044;29;20052;-77
2022/09/27 03:09:56;;;;;;;10.38;4.60;;;;;;;9.36;100.00;99062.66;4935632;29;20501;-77
2022/09/27 03:12:25;;;;;;;8.45;4.28;;;;;;;9.32;100.00;99059.63;4936081;29;20051;-78
2022/09/27 03:14:54;;;;;;;8.90;4.20;;;;;;;9.23;100.00;99065.94;4935700;29;20075;-77
2022/09/27 03:17:21;;;;;;;5.05;3.42;;;;;;;9.21;100.00;99057.50;4935833;29;20047;-77
2022/09/27 03:19:49;;;;;;;5.22;3.42;;;;;;;9.21;100.00;99066.13;4935937;29;20150;-79
2022/09/27 03:22:16;;;;;;;5.68;3.22;;;;;;;9.18;100.00;99063.09;4936568;29;20095;-78
2022/09/27 03:24:43;;;;;;;5.60;3.00;;;;;;;9.13;100.00;99062.81;4936173;29;20048;-76
2022/09/27 03:27:11;;;;;;;6.40;3.38;;;;;;;9.07;100.00;99069.59;4935965;29;20114;-78
2022/09/27 03:29:38;;;;;;;8.68;3.58;;;;;;;9.01;100.00;99062.50;4937381;29;20474;-78
2022/09/27 03:32:05;;;;;;;4.80;3.60;;;;;;;8.94;100.00;99059.84;4937148;29;20401;-77
2022/09/27 03:34:31;;;;;;;6.85;3.78;;;;;;;8.94;100.00;99064.25;4937638;29;20578;-78
2022/09/27 03:36:59;;;;;;;6.43;4.05;;;;;;;8.92;100.00;99069.66;4937469;29;20060;-78
2022/09/27 03:39:26;;;;;;;7.25;4.10;;;;;;;8.82;100.00;99061.28;4935941;29;20089;-77
2022/09/27 03:41:53;;;;;;;9.18;5.68;;;;;;;8.82;100.00;99066.50;4936357;29;20051;-78
2022/09/27 03:44:20;;;;;;;17.02;7.43;;;;;;;8.77;100.00;99074.06;4937197;29;20059;-78
2022/09/27 03:46:46;;;;;;;16.73;8.65;;;;;;;8.75;100.00;99070.03;4937365;29;20115;-79
2022/09/27 03:49:13;;;;;;;13.55;6.95;;;;;;;8.72;100.00;99068.59;4935903;29;20501;-78
2022/09/27 03:51:41;;;;;;;9.95;7.30;;;;;;;8.71;100.00;99085.22;4935480;29;20071;-76
2022/09/27 03:54:09;;;;;;;10.93;6.45;;;;;;;8.69;100.00;99079.38;4936023;29;20146;-77
2022/09/27 03:56:36;;;;;;;14.00;7.60;;;;;;;8.67;100.00;99086.56;4935791;29;20341;-77
2022/09/27 03:59:02;;;;;;;16.13;9.75;;;;;;;8.63;100.00;99080.09;4934945;29;20051;-77
2022/09/27 04:01:29;;;;;;;15.02;9.82;;;;;;;8.63;100.00;99088.72;4935381;29;20114;-76
2022/09/27 04:03:56;;;;;;;13.75;8.02;;;;;;;8.60;100.00;99072.63;4935563;29;20051;-77
2022/09/27 04:06:22;;;;;;;8.93;7.07;;;;;;;8.60;100.00;99081.28;4934967;29;20083;-77
2022/09/27 04:08:49;;;;;;;15.57;9.18;;;;;;;8.59;100.00;99089.28;4934899;29;20458;-78
2022/09/27 04:11:17;;;;;;;19.10;8.75;;;;;;;8.60;100.00;99081.28;4935514;29;20111;-77
2022/09/27 04:13:44;;;;;;;14.32;8.18;;;;;;;8.58;100.00;99088.47;4935672;29;20043;-77
2022/09/27 04:16:11;;;;;;;14.02;7.13;;;;;;;8.54;100.00;99081.19;4935167;29;20052;-76
2022/09/27 04:18:37;;;;;;;12.80;6.35;;;;;;;8.49;100.00;99071.31;4935100;29;20508;-78
2022/09/27 04:21:04;;;;;;;14.00;6.22;;;;;;;8.46;100.00;99061.25;4936375;29;20099;-79
2022/09/27 04:23:31;;;;;;;11.10;5.30;;;;;;;8.52;100.00;99070.13;4937023;29;20137;-76
2022/09/27 04:25:58;;;;;;;12.93;4.35;;;;;;;8.46;100.00;99069.06;4936969;29;20107;-79
2022/09/27 04:28:26;;;;;;;8.35;4.32;;;;;;;8.46;100.00;99071.69;4937597;29;20048;-79
2022/09/27 04:30:53;;;;;;;9.15;4.05;;;;;;;8.45;100.00;99072.66;4939378;29;20130;-79
2022/09/27 04:33:20;;;;;;;8.43;4.75;;;;;;;8.41;100.00;99078.41;4939318;29;20127;-79
2022/09/27 04:38:31;;;;;;;7.55;3.90;;;;;;;8.33;100.00;99066.28;4963135;23;20062;-82
2022/09/27 04:41:00;;;;;;;7.32;3.78;;;;;;;8.32;100.00;99073.28;4964285;29;20051;-83
2022/09/27 04:43:30;;;;;;;5.50;3.65;;;;;;;8.34;100.00;99075.72;4963766;29;20151;-82
2022/09/27 04:46:00;;;;;;;8.25;3.97;;;;;;;8.32;100.00;99078.50;4961960;29;20058;-82
2022/09/27 04:48:27;;;;;;;9.18;3.95;;;;;;;8.37;100.00;99083.19;4960904;29;20582;-82
2022/09/27 04:50:58;;;;;;;8.38;3.95;;;;;;;8.38;100.00;99086.59;4944460;29;20401;-83
2022/09/27 04:53:25;;;;;;;7.40;4.35;;;;;;;8.33;100.00;99094.94;4942923;28;20054;-83
2022/09/27 04:55:54;;;;;;;8.13;4.15;;;;;;;8.32;100.00;99094.13;4941661;29;20106;-82
2022/09/27 04:58:21;;;;;;;8.73;4.25;;;;;;;8.28;100.00;99094.63;4945490;29;20055;-84
2022/09/27 05:00:51;;;;;;;10.18;4.65;;;;;;;8.23;100.00;99103.00;4941240;29;20051;-84
2022/09/27 05:03:18;;;;;;;7.00;4.32;;;;;;;8.24;100.00;99106.41;4942936;29;20055;-83
2022/09/27 05:05:46;;;;;;;8.32;4.05;;;;;;;8.21;100.00;99112.78;4938576;29;20052;-83
2022/09/27 05:08:13;;;;;;;6.97;4.05;;;;;;;8.26;100.00;99125.28;4925780;29;20112;-83
2022/09/27 05:10:39;;;;;;;9.32;4.18;;;;;;;8.28;100.00;99113.69;4935902;29;20048;-84
2022/09/27 05:13:06;;;;;;;8.52;3.95;;;;;;;8.31;100.00;99115.94;4943910;29;20055;-83
2022/09/27 05:15:34;;;;;;;6.35;4.28;;;;;;;8.36;100.00;99112.84;4942299;29;20044;-83
2022/09/27 05:18:03;;;;;;;9.68;4.18;;;;;;;8.36;100.00;99114.63;4942764;29;20056;-82
2022/09/27 05:20:30;;;;;;;7.18;3.60;;;;;;;8.38;100.00;99117.88;4942526;29;20051;-83
2022/09/27 05:22:57;;;;;;;7.38;3.60;;;;;;;8.35;100.00;99123.44;4943211;29;20538;-84
2022/09/27 05:25:24;;;;;;;7.88;3.55;;;;;;;8.27;100.00;99112.06;4935430;29;20076;-83
2022/09/27 05:27:51;;;;;;;7.82;3.40;;;;;;;8.24;100.00;99127.25;4924702;29;20103;-82
2022/09/27 05:30:18;;;;;;;6.50;3.30;;;;;;;8.23;100.00;99125.63;4925686;29;20108;-82
2022/09/27 05:32:48;;;;;;;6.72;3.47;;;;;;;8.24;100.00;99127.25;4944431;29;20052;-82
2022/09/27 05:35:17;;;;;;;5.82;3.20;;;;;;;8.21;100.00;99131.03;4935841;29;20063;-83
2022/09/27 05:37:44;;;;;;;6.03;3.20;;;;;;;8.17;100.00;99139.38;4923164;29;20111;-81
2022/09/27 05:40:11;;;;;;;5.85;3.13;;;;;;;8.23;100.00;99146.47;4927584;29;20080;-82
2022/09/27 05:42:38;;;;;;;6.50;3.60;;;;;;;8.25;100.00;99155.75;4945929;29;20107;-82
2022/09/27 05:45:07;;;;;;;8.48;3.30;;;;;;;8.32;100.00;99159.28;4944199;29;20087;-83
2022/09/27 05:47:33;;;;;;;6.13;3.13;;;;;;;8.38;100.00;99170.00;4944410;29;20537;-82
2022/09/27 05:50:00;;;;;;;10.65;3.47;;;;;;;8.46;100.00;99162.91;4931798;29;20064;-82
2022/09/27 05:52:32;;;;;;;6.47;3.33;;;;;;;8.43;100.00;99155.44;4942687;29;20106;-82
2022/09/27 05:54:58;;;;;;;7.72;4.10;;;;;;;8.59;100.00;99163.09;4942752;29;20059;-81
2022/09/27 05:57:25;;;;;;;6.90;4.15;;;;;;;8.57;100.00;99154.63;4944848;29;20052;-82
2022/09/27 05:59:54;;;;;;;7.10;4.55;;;;;;;8.58;100.00;99145.81;4938846;29;20055;-82
2022/09/27 06:02:20;;;;;;;11.15;4.60;;;;;;;8.64;100.00;99145.09;4924233;29;20084;-83
2022/09/27 06:04:47;;;;;;;6.03;4.38;;;;;;;8.73;100.00;99158.88;4926076;29;20449;-83
2022/09/27 06:07:24;;;;;;;;;;;;;;;;;;;;;
2022/09/27 06:09:52;;;;;;;12.43;4.72;;;;;;;8.78;100.00;99155.72;4944913;29;20067;-80
2022/09/27 06:12:19;;;;;;;6.63;4.10;;;;;;;8.76;100.00;99147.28;4946215;29;20067;-79
2022/09/27 06:14:46;;;;;;;7.63;4.50;;;;;;;8.80;100.00;99148.53;4946793;29;20055;-80
2022/09/27 06:17:13;;;;;;;5.93;4.57;;;;;;;8.80;100.00;99149.34;4945336;29;20056;-81
2022/09/27 06:19:40;;;;;;;6.00;4.15;;;;;;;8.83;100.00;99148.97;4946590;29;20055;-80
2022/09/27 06:22:07;;;;;;;9.27;4.50;;;;;;;8.87;100.00;99158.06;4947426;29;20070;-82
2022/09/27 06:24:33;;;;;;;11.45;4.57;;;;;;;8.92;100.00;99162.75;4933238;29;20048;-81
2022/09/27 06:27:01;;;;;;;7.00;4.20;;;;;;;8.99;100.00;99164.44;4946789;29;20272;-82
2022/09/27 06:29:28;;;;;;;7.82;4.03;;;;;;;8.97;100.00;99166.44;4946663;29;20052;-81
2022/09/27 06:31:56;;;;;;;8.93;3.83;;;;;;;9.05;100.00;99169.91;4947903;29;20050;-82
2022/09/27 06:34:23;;;;;;;5.75;3.35;;;;;;;9.11;100.00;99167.38;4929397;29;20434;-82
2022/09/27 06:36:50;;;;;;;6.70;3.50;;;;;;;9.18;100.00;99167.47;4929474;29;20580;-83
2022/09/27 06:39:17;;;;;;;7.03;3.35;;;;;;;9.28;100.00;99168.00;4928786;29;20497;-82
2022/09/27 06:41:43;;;;;;;7.15;3.03;;;;;;;9.30;100.00;99169.44;4927711;29;20107;-78
2022/09/27 06:44:12;;;;;;;7.35;3.13;;;;;;;9.61;100.00;99179.59;4925436;29;20115;-77
2022/09/27 06:46:38;;;;;;;7.32;3.10;;;;;;;9.68;100.00;99176.25;4924901;29;20052;-79
2022/09/27 06:49:06;;;;;;;4.85;2.85;;;;;;;9.65;100.00;99185.28;4925332;29;20052;-79
2022/09/27 06:51:33;;;;;;;4.30;2.50;;;;;;;9.40;100.00;99174.38;4923191;29;20056;-80
2022/09/27 06:53:59;;;;;;;7.20;3.00;;;;;;;9.39;100.00;99188.41;4921685;29;20056;-79
2022/09/27 06:56:26;;;;;;;4.90;2.33;;;;;;;9.41;100.00;99188.22;4923364;29;20063;-78
2022/09/27 07:01:41;;;;;;;3.45;2.28;;;;;;;9.26;100.00;99190.88;4928554;29;20507;-81
2022/09/27 07:04:10;;;;;;;4.15;2.60;;;;;;;9.30;100.00;99203.38;4945669;29;20056;-81
2022/09/27 07:06:37;;;;;;;3.72;2.40;;;;;;;9.31;100.00;99193.75;4949820;29;20055;-82
2022/09/27 07:09:05;;;;;;;4.43;2.60;;;;;;;9.20;100.00;99188.97;4949566;29;20116;-80
2022/09/27 07:11:35;;;;;;;3.50;1.80;;;;;;;9.19;100.00;99197.78;4950029;29;20106;-81
2022/09/27 07:14:02;;;;;;;4.20;1.63;;;;;;;9.22;100.00;99216.50;4950213;29;20052;-80
2022/09/27 07:16:30;;;;;;;4.30;2.13;;;;;;;9.16;100.00;99200.78;4938335;29;20119;-79
2022/09/27 07:18:58;;;;;;;4.20;1.65;;;;;;;9.15;100.00;99204.38;4928794;29;20519;-82
2022/09/27 07:21:25;;;;;;;4.65;2.05;;;;;;;9.19;100.00;99200.41;4933851;29;20102;-79
2022/09/27 07:23:52;;;;;;;8.15;2.13;;;;;;;9.19;100.00;99203.03;4943999;29;20452;-79
2022/09/27 07:26:21;;;;;;;4.93;1.75;;;;;;;9.26;100.00;99209.13;4940362;29;20142;-81
2022/09/27 07:28:48;;;;;;;2.22;1.67;;;;;;;9.22;100.00;99206.06;4952247;29;20075;-81
2022/09/27 07:31:15;;;;;;;3.05;1.77;;;;;;;9.25;100.00;99204.91;4947765;29;20044;-82
2022/09/27 07:33:42;;;;;;;3.15;1.85;;;;;;;9.27;100.00;99208.16;4950111;29;20051;-82
2022/09/27 07:36:15;;;;;;;5.32;2.30;;;;;;;9.25;100.00;99205.72;4941768;29;20095;-81
2022/09/27 07:38:42;;;;;;;5.75;2.10;;;;;;;9.28;100.00;99214.97;4935796;29;20099;-80
2022/09/27 07:41:11;;;;;;;4.50;3.30;;;;;;;9.32;100.00;99218.84;4952629;29;20055;-82
2022/09/27 07:43:37;;;;;;;5.22;2.72;;;;;;;9.31;100.00;99214.63;4951192;29;20052;-82
2022/09/27 07:46:05;;;;;;;7.05;2.40;;;;;;;9.39;100.00;99227.56;4941560;29;20132;-85
2022/09/27 07:48:31;;;;;;;5.75;3.05;;;;;;;9.38;100.00;99230.38;4931087;29;20104;-83
2022/09/27 07:50:58;;;;;;;6.00;3.53;;;;;;;9.41;100.00;99224.78;4932675;29;20088;-83
2022/09/27 07:53:27;;;;;;;5.10;3.35;;;;;;;9.55;100.00;99234.38;4947755;29;20567;-84
2022/09/27 07:55:54;;;;;;;3.85;3.20;;;;;;;9.64;100.00;99236.69;4946822;29;20052;-83
2022/09/27 07:58:23;;;;;;;4.57;2.97;;;;;;;9.75;100.00;99238.03;4947507;29;20095;-83
2022/09/27 08:00:50;;;;;;;8.32;3.88;;;;;;;9.77;100.00;99246.50;4944962;29;20123;-82
2022/09/27 08:03:17;;;;;;;3.60;3.00;;;;;;;9.83;100.00;99245.75;4948844;29;20146;-83
2022/09/27 08:05:46;;;;;;;6.75;3.20;;;;;;;9.96;100.00;99245.88;4947632;29;20055;-83
2022/09/27 08:08:13;;;;;;;5.03;2.97;;;;;;;10.21;100.00;99241.13;4950073;29;20091;-84
2022/09/27 08:10:42;;;;;;;5.35;3.60;;;;;;;10.27;98.18;99248.22;4944154;29;20552;-84
2022/09/27 08:13:10;;;;;;;3.63;3.30;;;;;;;10.52;97.70;99245.19;4949102;29;20075;-84
2022/09/27 08:15:38;;;;;;;8.82;3.80;;;;;;;11.09;97.01;99250.22;4948562;29;20076;-84
2022/09/27 08:18:08;;;;;;;6.45;3.67;;;;;;;11.51;94.05;99251.03;4949949;29;20044;-83
2022/09/27 08:20:35;;;;;;;4.70;3.20;;;;;;;11.61;92.35;99244.44;4946235;29;20069;-83
2022/09/27 08:23:03;;;;;;;3.47;2.78;;;;;;;11.87;92.30;99254.19;4943687;29;20110;-83
2022/09/27 08:25:31;;;;;;;5.03;2.58;;;;;;;11.69;91.87;99253.13;4947571;29;20083;-82
2022/09/27 08:28:03;;;;;;;3.50;1.98;;;;;;;11.72;91.04;99257.97;4934678;29;20292;-83
2022/09/27 08:30:31;;;;;;;3.30;1.98;;;;;;;11.68;91.19;99256.75;4949548;29;20051;-83
2022/09/27 08:32:59;;;;;;;3.08;2.05;;;;;;;11.48;92.60;99248.78;4930412;29;20036;-83
2022/09/27 08:35:28;;;;;;;4.50;2.10;;;;;;;11.38;92.74;99259.63;4939109;29;20075;-81
2022/09/27 08:37:56;;;;;;;5.97;2.30;;;;;;;11.69;91.97;99258.34;4945951;29;20044;-81
2022/09/27 08:40:32;;;;;;;3.97;2.13;;;;;;;11.95;90.14;99263.69;4956117;29;20075;-83
2022/09/27 08:43:12;;;;;;;4.13;2.40;;;;;;;12.20;88.83;99269.22;4951836;29;20111;-83
2022/09/27 08:45:55;;;;;;;8.02;2.53;;;;;;;12.28;86.93;99250.66;4949824;28;20824;-81
2022/09/27 08:48:28;;;;;;;7.40;2.15;;;;;;;12.25;86.86;99254.50;4950423;28;20111;-82
2022/09/27 08:50:56;;;;;;;3.92;2.35;;;;;;;12.58;86.04;99258.94;4947411;29;20047;-80
2022/09/27 08:53:27;;;;;;;2.65;2.08;;;;;;;12.59;85.99;99261.34;4937357;29;20091;-81
2022/09/27 08:55:56;;;;;;;3.70;2.33;;;;;;;12.62;86.57;99266.22;4936128;29;20051;-80
2022/09/27 08:58:27;;;;;;;2.58;2.38;;;;;;;12.34;86.08;99267.38;4940371;29;20079;-79
2022/09/27 09:00:55;;;;;;;4.63;2.35;;;;;;;11.91;86.60;99262.47;4941584;29;20080;-79
2022/09/27 09:03:27;;;;;;;6.72;2.92;;;;;;;11.87;88.30;99248.97;4949151;29;20107;-84
2022/09/27 09:06:09;;;;;;;9.95;3.58;;;;;;;11.86;88.85;99262.25;4947253;29;20051;-83
2022/09/27 09:08:46;;;;;;;6.73;3.83;;;;;;;11.93;88.22;99266.50;4947314;29;20067;-81
2022/09/27 09:14:44;;;;;;;3.10;2.80;;;;;;;11.61;88.80;99261.97;4942568;29;20051;-82
2022/09/27 09:17:39;;;;;;;4.55;3.00;;;;;;;11.42;89.04;99242.53;4930605;29;20059;-82
2022/09/27 09:20:38;;;;;;;6.10;3.75;;;;;;;11.41;89.92;99246.16;4946073;29;20056;-82
2022/09/27 09:23:39;;;;;;;6.68;3.30;;;;;;;11.47;90.52;99252.41;4940024;29;20064;-82
2022/09/27 09:26:18;;;;;;;4.47;3.50;;;;;;;11.32;91.08;99249.97;4928161;29;20066;-80
2022/09/27 09:29:00;;;;;;;4.45;3.72;;;;;;;11.24;91.03;99239.63;4961734;29;20070;-83
2022/09/27 09:31:45;;;;;;;5.30;3.60;;;;;;;11.28;89.42;99253.97;4932503;29;20056;-82
2022/09/27 09:34:20;;;;;;;6.15;3.55;;;;;;;11.18;89.26;99237.78;4928099;29;20105;-81
2022/09/27 09:36:55;;;;;;;4.00;3.60;;;;;;;11.26;89.39;99248.13;4930610;29;20056;-82
2022/09/27 09:39:27;;;;;;;4.00;3.60;;;;;;;11.19;89.22;99253.31;4930462;29;20052;-82
2022/09/27 09:42:12;;;;;;;6.10;3.50;;;;;;;11.24;89.17;99257.97;4930042;29;20100;-82
2022/09/27 09:44:50;;;;;;;5.00;3.65;;;;;;;11.27;89.49;99257.59;4927590;29;20094;-81
2022/09/27 09:47:32;;;;;;;6.60;3.70;;;;;;;11.26;89.49;99251.53;4928004;29;20504;-82
2022/09/27 09:50:03;;;;;;;5.93;3.33;;;;;;;11.24;89.37;99243.06;4927492;29;20101;-82
2022/09/27 09:52:40;;;;;;;5.05;3.80;;;;;;;11.10;88.60;99245.78;4926868;29;20142;-80
2022/09/27 09:55:17;;;;;;;3.47;3.10;;;;;;;11.07;89.40;99239.13;4926775;29;20084;-82
2022/09/27 09:58:00;;;;;;;4.45;3.42;;;;;;;11.11;89.99;99244.78;4927139;29;20055;-82
2022/09/27 10:00:27;;;;;;;5.53;3.60;;;;;;;11.22;89.65;99239.84;4926536;29;20056;-81
2022/09/27 10:03:00;;;;;;;5.90;3.88;;;;;;;11.33;89.58;99238.47;4941457;29;20060;-78
2022/09/27 10:05:28;;;;;;;9.38;4.00;;;;;;;11.30;88.97;99234.44;4946576;29;20047;-81
2022/09/27 10:08:00;;;;;;;5.22;3.90;;;;;;;11.23;88.89;99238.03;4946481;29;20060;-81
2022/09/27 10:10:27;;;;;;;7.00;3.97;;;;;;;11.23;88.80;99222.31;4945651;29;20087;-82
2022/09/27 10:12:55;;;;;;;5.93;3.75;;;;;;;11.44;89.27;99230.03;4945191;29;20134;-80
2022/09/27 10:15:25;;;;;;;5.65;3.92;;;;;;;11.61;88.80;99231.31;4947592;29;20055;-82
2022/09/27 10:18:01;;;;;;;6.53;3.70;;;;;;;11.62;88.76;99227.69;4946792;29;20143;-81
2022/09/27 10:20:32;;;;;;;6.15;4.00;;;;;;;11.55;88.18;99226.88;4947192;29;20131;-84
2022/09/27 10:23:07;;;;;;;8.70;4.40;;;;;;;11.53;87.88;99234.13;4947078;29;20115;-83
2022/09/27 10:25:51;;;;;;;7.03;4.43;;;;;;;11.26;89.77;99208.84;4946390;29;20074;-83
2022/09/27 10:29:10;;;;;;;5.63;3.83;;;;;;;11.05;89.96;99199.25;4943853;29;20051;-81
2022/09/27 10:31:46;;;;;;;6.00;4.25;;;;;;;11.12;91.17;99217.63;4886703;29;20057;-81
2022/09/27 10:34:37;;;;;;;5.20;3.80;;;;;;;11.02;90.31;99207.50;4886904;29;20064;-82
2022/09/27 10:37:17;;;;;;;5.20;4.07;;;;;;;11.11;90.68;99222.03;4883002;29;20057;-81
2022/09/27 10:42:22;;;;;;;6.18;4.10;;;;;;;11.10;90.10;99217.00;4947512;28;20122;-78
2022/09/27 10:44:49;;;;;;;6.90;4.75;;;;;;;11.09;92.67;99223.25;4954019;29;20105;-77
2022/09/27 10:47:21;;;;;;;6.80;4.90;;;;;;;10.97;94.87;99222.97;4957276;29;20586;-78
2022/09/27 10:49:51;;;;;;;8.30;5.35;;;;;;;10.79;97.05;99215.63;4946917;29;20051;-78
2022/09/27 10:52:21;;;;;;;7.18;5.05;;;;;;;10.90;97.20;99220.31;4937748;29;20102;-78
2022/09/27 10:54:56;;;;;;;6.65;5.28;;;;;;;11.06;96.92;99221.00;4939080;29;20051;-78
2022/09/27 10:57:24;;;;;;;7.35;5.60;;;;;;;11.07;95.81;99222.63;4939026;29;20079;-77
2022/09/27 10:59:53;;;;;;;7.32;5.85;;;;;;;11.12;95.52;99210.56;4937952;29;20087;-78
2022/09/27 11:02:22;;;;;;;8.05;5.43;;;;;;;10.95;95.07;99224.97;4939603;29;20227;-78
2022/09/27 11:05:07;;;;;;;7.45;5.90;;;;;;;10.74;95.09;99218.00;4945638;29;20114;-77
2022/09/27 11:07:36;;;;;;;8.35;6.00;;;;;;;10.87;95.13;99210.22;4933217;29;20074;-77
2022/09/27 11:10:23;;;;;;;7.80;5.85;;;;;;;10.97;94.72;99220.34;4941651;29;20052;-79
2022/09/27 11:13:06;;;;;;;9.82;6.10;;;;;;;11.20;95.47;99220.09;4945258;29;20055;-80
2022/09/27 11:15:44;;;;;;;8.20;5.80;;;;;;;11.33;93.72;99209.69;4944477;29;20527;-80
2022/09/27 11:18:22;;;;;;;8.98;6.07;;;;;;;11.72;93.24;99214.22;4938140;29;20051;-81
2022/09/27 11:20:59;;;;;;;8.05;5.70;;;;;;;11.50;90.85;99203.06;4931575;29;20326;-79
2022/09/27 11:23:47;;;;;;;8.57;5.55;;;;;;;11.70;90.83;99218.06;4941720;29;20080;-80
2022/09/27 11:26:34;;;;;;;6.00;4.78;;;;;;;11.55;89.82;99200.66;4939315;29;20539;-81
2022/09/27 11:29:14;;;;;;;7.95;5.30;;;;;;;11.73;89.29;99204.56;4939729;29;20142;-80
2022/09/27 11:31:50;;;;;;;5.90;5.00;;;;;;;11.51;89.55;99198.63;4940201;29;20048;-79
2022/09/27 11:34:46;;;;;;;9.65;5.47;;;;;;;11.36;90.58;99206.63;4939028;29;20485;-80
2022/09/27 11:37:21;;;;;;;7.13;4.78;;;;;;;11.22;91.13;99190.09;4938227;29;20047;-79
2022/09/27 11:40:05;;;;;;;8.35;5.40;;;;;;;11.16;91.08;99200.53;4941449;29;20144;-81
2022/09/27 11:42:55;;;;;;;6.75;5.30;;;;;;;11.01;92.65;99199.84;4941865;29;20419;-79
2022/09/27 11:45:40;;;;;;;8.27;5.28;;;;;;;10.95;93.13;99204.03;4939081;29;20834;-79
2022/09/27 11:48:23;;;;;;;10.73;5.90;;;;;;;10.84;93.36;99202.78;4941190;29;20150;-80
2022/09/27 11:51:04;;;;;;;11.20;6.43;;;;;;;10.80;95.18;99200.75;4942008;29;20052;-79
2022/09/27 11:53:45;;;;;;;12.30;6.55;;;;;;;10.76;96.09;99195.09;4941806;29;20689;-81
2022/09/27 11:56:23;;;;;;;9.55;6.93;;;;;;;10.86;97.12;99205.22;4942652;29;20078;-82
2022/09/27 11:59:05;;;;;;;10.15;6.25;;;;;;;10.93;98.26;99199.00;4941544;29;20051;-80
2022/09/27 12:01:43;;;;;;;9.32;5.75;;;;;;;10.85;97.56;99196.56;4941709;29;20048;-80
2022/09/27 12:04:49;;;;;;;8.77;6.25;;;;;;;10.96;97.75;99184.72;4943393;29;20449;-79
2022/09/27 12:07:24;;;;;;;8.48;6.05;;;;;;;11.19;97.72;99189.66;4941950;29;20094;-80